sensor_id;sensor_type;location;lat;lon;timestamp;P1;durP1;ratioP1;P2;durP2;ratioP2
40907;SDS011;51055;59.436;24.778;2022-08-19T00:02:15;9.90;;;5.77;;
40907;SDS011;51055;59.436;24.778;2022-08-19T00:04:43;9.77;;;6.28;;
40907;SDS011;51055;59.436;24.778;2022-08-19T00:07:13;11.55;;;6.90;;
40907;SDS011;51055;59.436;24.778;2022-08-19T00:09:41;12.95;;;6.93;;
40907;SDS011;51055;59.436;24.778;2022-08-19T00:12:09;16.13;;;7.00;;
40907;SDS011;51055;59.436;24.778;2022-08-19T00:14:37;11.10;;;6.07;;
40907;SDS011;51055;59.436;24.778;2022-08-19T00:17:06;11.80;;;6.38;;
40907;SDS011;51055;59.436;24.778;2022-08-19T00:19:36;11.25;;;6.90;;
40907;SDS011;51055;59.436;24.778;2022-08-19T00:24:32;12.18;;;6.40;;
40907;SDS011;51055;59.436;24.778;2022-08-19T00:27:00;12.10;;;6.97;;
40907;SDS011;51055;59.436;24.778;2022-08-19T00:29:49;11.98;;;7.00;;
40907;SDS011;51055;59.436;24.778;2022-08-19T00:32:18;12.77;;;6.47;;
40907;SDS011;51055;59.436;24.778;2022-08-19T00:34:47;12.52;;;6.75;;
40907;SDS011;51055;59.436;24.778;2022-08-19T00:37:15;11.40;;;6.70;;
40907;SDS011;51055;59.436;24.778;2022-08-19T00:39:42;15.53;;;7.60;;
40907;SDS011;51055;59.436;24.778;2022-08-19T00:42:10;10.77;;;6.90;;
40907;SDS011;51055;59.436;24.778;2022-08-19T00:44:42;10.63;;;6.68;;
40907;SDS011;51055;59.436;24.778;2022-08-19T00:47:10;12.33;;;7.03;;
40907;SDS011;51055;59.436;24.778;2022-08-19T00:49:44;14.10;;;7.25;;
40907;SDS011;51055;59.436;24.778;2022-08-19T00:52:25;15.88;;;6.97;;
40907;SDS011;51055;59.436;24.778;2022-08-19T00:54:56;13.82;;;6.93;;
40907;SDS011;51055;59.436;24.778;2022-08-19T00:57:27;13.88;;;7.55;;
40907;SDS011;51055;59.436;24.778;2022-08-19T00:59:57;10.50;;;6.80;;
40907;SDS011;51055;59.436;24.778;2022-08-19T01:02:30;11.73;;;6.90;;
40907;SDS011;51055;59.436;24.778;2022-08-19T01:05:00;12.75;;;7.00;;
40907;SDS011;51055;59.436;24.778;2022-08-19T01:07:30;9.90;;;6.32;;
40907;SDS011;51055;59.436;24.778;2022-08-19T01:10:10;11.95;;;6.50;;
40907;SDS011;51055;59.436;24.778;2022-08-19T01:12:41;14.57;;;7.28;;
40907;SDS011;51055;59.436;24.778;2022-08-19T01:15:10;15.07;;;7.20;;
40907;SDS011;51055;59.436;24.778;2022-08-19T01:17:40;10.57;;;7.13;;
40907;SDS011;51055;59.436;24.778;2022-08-19T01:20:11;12.85;;;6.95;;
40907;SDS011;51055;59.436;24.778;2022-08-19T01:22:51;15.60;;;7.10;;
40907;SDS011;51055;59.436;24.778;2022-08-19T01:25:22;12.95;;;7.22;;
40907;SDS011;51055;59.436;24.778;2022-08-19T01:27:55;15.10;;;6.80;;
40907;SDS011;51055;59.436;24.778;2022-08-19T01:30:30;14.55;;;7.45;;
40907;SDS011;51055;59.436;24.778;2022-08-19T01:32:59;10.85;;;7.18;;
40907;SDS011;51055;59.436;24.778;2022-08-19T01:37:58;11.10;;;6.38;;
40907;SDS011;51055;59.436;24.778;2022-08-19T01:40:30;10.02;;;6.88;;
40907;SDS011;51055;59.436;24.778;2022-08-19T01:43:00;8.15;;;6.32;;
40907;SDS011;51055;59.436;24.778;2022-08-19T01:45:30;9.50;;;6.88;;
40907;SDS011;51055;59.436;24.778;2022-08-19T01:48:00;10.15;;;6.80;;
40907;SDS011;51055;59.436;24.778;2022-08-19T01:50:29;10.10;;;6.97;;
40907;SDS011;51055;59.436;24.778;2022-08-19T01:52:58;12.80;;;7.32;;
40907;SDS011;51055;59.436;24.778;2022-08-19T01:55:35;14.40;;;7.68;;
40907;SDS011;51055;59.436;24.778;2022-08-19T01:58:14;11.50;;;7.18;;
40907;SDS011;51055;59.436;24.778;2022-08-19T02:00:48;10.82;;;6.88;;
40907;SDS011;51055;59.436;24.778;2022-08-19T02:03:16;13.32;;;7.72;;
40907;SDS011;51055;59.436;24.778;2022-08-19T02:05:44;16.60;;;6.75;;
40907;SDS011;51055;59.436;24.778;2022-08-19T02:08:12;13.93;;;7.50;;
40907;SDS011;51055;59.436;24.778;2022-08-19T02:10:41;15.02;;;7.65;;
40907;SDS011;51055;59.436;24.778;2022-08-19T02:13:11;13.52;;;7.85;;
40907;SDS011;51055;59.436;24.778;2022-08-19T02:15:40;10.70;;;8.00;;
40907;SDS011;51055;59.436;24.778;2022-08-19T02:18:08;13.73;;;7.93;;
40907;SDS011;51055;59.436;24.778;2022-08-19T02:20:37;13.60;;;7.78;;
40907;SDS011;51055;59.436;24.778;2022-08-19T02:23:06;11.50;;;7.53;;
40907;SDS011;51055;59.436;24.778;2022-08-19T02:25:43;13.18;;;7.47;;
40907;SDS011;51055;59.436;24.778;2022-08-19T02:28:12;11.32;;;7.25;;
40907;SDS011;51055;59.436;24.778;2022-08-19T02:30:45;13.50;;;7.78;;
40907;SDS011;51055;59.436;24.778;2022-08-19T02:33:14;13.05;;;7.53;;
40907;SDS011;51055;59.436;24.778;2022-08-19T02:35:42;12.55;;;7.35;;
40907;SDS011;51055;59.436;24.778;2022-08-19T02:38:13;15.48;;;7.60;;
40907;SDS011;51055;59.436;24.778;2022-08-19T02:40:58;12.80;;;7.57;;
40907;SDS011;51055;59.436;24.778;2022-08-19T02:43:28;13.10;;;7.13;;
40907;SDS011;51055;59.436;24.778;2022-08-19T02:46:00;11.13;;;7.70;;
40907;SDS011;51055;59.436;24.778;2022-08-19T02:48:28;16.42;;;7.97;;
40907;SDS011;51055;59.436;24.778;2022-08-19T02:50:56;14.63;;;7.80;;
40907;SDS011;51055;59.436;24.778;2022-08-19T02:53:25;18.42;;;7.90;;
40907;SDS011;51055;59.436;24.778;2022-08-19T02:55:54;14.93;;;8.13;;
40907;SDS011;51055;59.436;24.778;2022-08-19T02:58:22;14.02;;;7.38;;
40907;SDS011;51055;59.436;24.778;2022-08-19T03:00:53;15.68;;;7.65;;
40907;SDS011;51055;59.436;24.778;2022-08-19T03:03:22;11.73;;;7.45;;
40907;SDS011;51055;59.436;24.778;2022-08-19T03:05:50;11.30;;;7.40;;
40907;SDS011;51055;59.436;24.778;2022-08-19T03:08:23;10.38;;;7.28;;
40907;SDS011;51055;59.436;24.778;2022-08-19T03:10:51;12.80;;;7.70;;
40907;SDS011;51055;59.436;24.778;2022-08-19T03:13:20;11.55;;;7.20;;
40907;SDS011;51055;59.436;24.778;2022-08-19T03:15:47;11.88;;;7.15;;
40907;SDS011;51055;59.436;24.778;2022-08-19T03:18:15;13.18;;;7.13;;
40907;SDS011;51055;59.436;24.778;2022-08-19T03:20:45;13.82;;;7.63;;
40907;SDS011;51055;59.436;24.778;2022-08-19T03:23:15;14.02;;;8.02;;
40907;SDS011;51055;59.436;24.778;2022-08-19T03:25:45;13.38;;;8.63;;
40907;SDS011;51055;59.436;24.778;2022-08-19T03:28:29;15.05;;;8.00;;
40907;SDS011;51055;59.436;24.778;2022-08-19T03:30:57;13.20;;;7.50;;
40907;SDS011;51055;59.436;24.778;2022-08-19T03:33:30;11.30;;;7.60;;
40907;SDS011;51055;59.436;24.778;2022-08-19T03:38:38;10.82;;;7.20;;
40907;SDS011;51055;59.436;24.778;2022-08-19T03:41:10;12.30;;;7.70;;
40907;SDS011;51055;59.436;24.778;2022-08-19T03:43:41;9.63;;;7.60;;
40907;SDS011;51055;59.436;24.778;2022-08-19T03:46:12;17.45;;;7.97;;
40907;SDS011;51055;59.436;24.778;2022-08-19T03:48:44;9.60;;;7.57;;
40907;SDS011;51055;59.436;24.778;2022-08-19T03:51:16;14.57;;;7.53;;
40907;SDS011;51055;59.436;24.778;2022-08-19T03:53:58;13.68;;;8.10;;
40907;SDS011;51055;59.436;24.778;2022-08-19T03:56:27;12.63;;;7.80;;
40907;SDS011;51055;59.436;24.778;2022-08-19T03:58:55;14.30;;;8.20;;
40907;SDS011;51055;59.436;24.778;2022-08-19T04:01:25;14.15;;;8.00;;
40907;SDS011;51055;59.436;24.778;2022-08-19T04:04:01;10.43;;;7.18;;
40907;SDS011;51055;59.436;24.778;2022-08-19T04:06:31;12.65;;;7.50;;
40907;SDS011;51055;59.436;24.778;2022-08-19T04:09:07;11.20;;;7.43;;
40907;SDS011;51055;59.436;24.778;2022-08-19T04:11:38;11.45;;;7.75;;
40907;SDS011;51055;59.436;24.778;2022-08-19T04:14:12;14.48;;;7.45;;
40907;SDS011;51055;59.436;24.778;2022-08-19T04:16:41;13.25;;;7.40;;
40907;SDS011;51055;59.436;24.778;2022-08-19T04:19:12;11.00;;;7.53;;
40907;SDS011;51055;59.436;24.778;2022-08-19T04:21:42;12.20;;;7.55;;
40907;SDS011;51055;59.436;24.778;2022-08-19T04:24:11;11.40;;;7.93;;
40907;SDS011;51055;59.436;24.778;2022-08-19T04:26:40;12.65;;;8.00;;
40907;SDS011;51055;59.436;24.778;2022-08-19T04:29:10;11.82;;;7.85;;
40907;SDS011;51055;59.436;24.778;2022-08-19T04:31:40;11.30;;;7.85;;
40907;SDS011;51055;59.436;24.778;2022-08-19T04:34:10;11.02;;;7.55;;
40907;SDS011;51055;59.436;24.778;2022-08-19T04:36:41;13.68;;;8.30;;
40907;SDS011;51055;59.436;24.778;2022-08-19T04:39:13;13.30;;;7.82;;
40907;SDS011;51055;59.436;24.778;2022-08-19T04:41:43;15.02;;;7.20;;
40907;SDS011;51055;59.436;24.778;2022-08-19T04:44:33;11.88;;;7.93;;
40907;SDS011;51055;59.436;24.778;2022-08-19T04:47:11;13.70;;;8.38;;
40907;SDS011;51055;59.436;24.778;2022-08-19T04:49:39;15.90;;;8.30;;
40907;SDS011;51055;59.436;24.778;2022-08-19T04:52:07;12.80;;;7.38;;
40907;SDS011;51055;59.436;24.778;2022-08-19T04:54:35;16.08;;;8.23;;
40907;SDS011;51055;59.436;24.778;2022-08-19T04:57:06;10.77;;;7.70;;
40907;SDS011;51055;59.436;24.778;2022-08-19T04:59:38;13.35;;;7.50;;
40907;SDS011;51055;59.436;24.778;2022-08-19T05:02:07;13.00;;;7.78;;
40907;SDS011;51055;59.436;24.778;2022-08-19T05:04:36;11.50;;;7.60;;
40907;SDS011;51055;59.436;24.778;2022-08-19T05:07:07;11.70;;;7.57;;
40907;SDS011;51055;59.436;24.778;2022-08-19T05:09:35;13.25;;;7.65;;
40907;SDS011;51055;59.436;24.778;2022-08-19T05:12:23;12.00;;;7.47;;
40907;SDS011;51055;59.436;24.778;2022-08-19T05:14:55;12.52;;;7.63;;
40907;SDS011;51055;59.436;24.778;2022-08-19T05:17:25;13.10;;;7.63;;
40907;SDS011;51055;59.436;24.778;2022-08-19T05:19:57;11.25;;;7.85;;
40907;SDS011;51055;59.436;24.778;2022-08-19T05:22:44;12.55;;;7.88;;
40907;SDS011;51055;59.436;24.778;2022-08-19T05:25:14;12.50;;;7.40;;
40907;SDS011;51055;59.436;24.778;2022-08-19T05:27:46;8.88;;;6.90;;
40907;SDS011;51055;59.436;24.778;2022-08-19T05:30:15;15.52;;;7.75;;
40907;SDS011;51055;59.436;24.778;2022-08-19T05:32:43;17.15;;;7.68;;
40907;SDS011;51055;59.436;24.778;2022-08-19T05:35:10;12.48;;;7.70;;
40907;SDS011;51055;59.436;24.778;2022-08-19T05:37:39;21.85;;;8.63;;
40907;SDS011;51055;59.436;24.778;2022-08-19T05:42:36;13.43;;;7.40;;
40907;SDS011;51055;59.436;24.778;2022-08-19T05:45:06;10.02;;;6.72;;
40907;SDS011;51055;59.436;24.778;2022-08-19T05:47:34;12.50;;;6.88;;
40907;SDS011;51055;59.436;24.778;2022-08-19T05:50:08;16.10;;;8.65;;
40907;SDS011;51055;59.436;24.778;2022-08-19T05:52:36;11.43;;;7.00;;
40907;SDS011;51055;59.436;24.778;2022-08-19T05:55:16;12.63;;;7.10;;
40907;SDS011;51055;59.436;24.778;2022-08-19T05:57:44;10.30;;;7.20;;
40907;SDS011;51055;59.436;24.778;2022-08-19T06:00:11;13.00;;;7.07;;
40907;SDS011;51055;59.436;24.778;2022-08-19T06:02:40;13.02;;;7.25;;
40907;SDS011;51055;59.436;24.778;2022-08-19T06:05:08;14.93;;;7.47;;
40907;SDS011;51055;59.436;24.778;2022-08-19T06:07:36;14.65;;;7.20;;
40907;SDS011;51055;59.436;24.778;2022-08-19T06:10:05;12.32;;;6.75;;
40907;SDS011;51055;59.436;24.778;2022-08-19T06:12:35;11.88;;;7.30;;
40907;SDS011;51055;59.436;24.778;2022-08-19T06:15:05;14.30;;;7.03;;
40907;SDS011;51055;59.436;24.778;2022-08-19T06:17:38;11.05;;;6.97;;
40907;SDS011;51055;59.436;24.778;2022-08-19T06:20:07;10.57;;;7.30;;
40907;SDS011;51055;59.436;24.778;2022-08-19T06:22:40;13.65;;;6.47;;
40907;SDS011;51055;59.436;24.778;2022-08-19T06:25:09;9.30;;;7.05;;
40907;SDS011;51055;59.436;24.778;2022-08-19T06:30:25;12.85;;;6.60;;
40907;SDS011;51055;59.436;24.778;2022-08-19T06:32:53;14.02;;;7.18;;
40907;SDS011;51055;59.436;24.778;2022-08-19T06:35:21;13.32;;;7.25;;
40907;SDS011;51055;59.436;24.778;2022-08-19T06:37:48;10.77;;;6.88;;
40907;SDS011;51055;59.436;24.778;2022-08-19T06:40:16;13.18;;;6.97;;
40907;SDS011;51055;59.436;24.778;2022-08-19T06:42:44;11.73;;;6.55;;
40907;SDS011;51055;59.436;24.778;2022-08-19T06:45:22;14.20;;;6.85;;
40907;SDS011;51055;59.436;24.778;2022-08-19T06:47:52;16.63;;;7.30;;
40907;SDS011;51055;59.436;24.778;2022-08-19T06:50:23;11.90;;;6.45;;
40907;SDS011;51055;59.436;24.778;2022-08-19T06:52:51;10.52;;;6.25;;
40907;SDS011;51055;59.436;24.778;2022-08-19T06:57:47;13.75;;;6.53;;
40907;SDS011;51055;59.436;24.778;2022-08-19T07:00:15;12.45;;;6.28;;
40907;SDS011;51055;59.436;24.778;2022-08-19T07:02:43;10.75;;;6.55;;
40907;SDS011;51055;59.436;24.778;2022-08-19T07:05:23;13.82;;;6.10;;
40907;SDS011;51055;59.436;24.778;2022-08-19T07:07:51;9.93;;;6.22;;
40907;SDS011;51055;59.436;24.778;2022-08-19T07:10:19;13.05;;;6.82;;
40907;SDS011;51055;59.436;24.778;2022-08-19T07:12:46;14.23;;;6.70;;
40907;SDS011;51055;59.436;24.778;2022-08-19T07:15:16;15.40;;;6.22;;
40907;SDS011;51055;59.436;24.778;2022-08-19T07:17:45;10.95;;;6.43;;
40907;SDS011;51055;59.436;24.778;2022-08-19T07:20:19;11.98;;;5.93;;
40907;SDS011;51055;59.436;24.778;2022-08-19T07:25:16;9.93;;;5.90;;
40907;SDS011;51055;59.436;24.778;2022-08-19T07:27:45;13.25;;;6.10;;
40907;SDS011;51055;59.436;24.778;2022-08-19T07:30:20;12.40;;;6.15;;
40907;SDS011;51055;59.436;24.778;2022-08-19T07:32:52;14.10;;;6.40;;
40907;SDS011;51055;59.436;24.778;2022-08-19T07:35:20;13.23;;;6.22;;
40907;SDS011;51055;59.436;24.778;2022-08-19T07:37:48;10.93;;;6.03;;
40907;SDS011;51055;59.436;24.778;2022-08-19T07:42:43;13.03;;;5.50;;
40907;SDS011;51055;59.436;24.778;2022-08-19T07:45:11;10.00;;;5.65;;
40907;SDS011;51055;59.436;24.778;2022-08-19T07:47:39;11.05;;;6.75;;
40907;SDS011;51055;59.436;24.778;2022-08-19T07:50:17;12.45;;;6.38;;
40907;SDS011;51055;59.436;24.778;2022-08-19T07:52:47;10.07;;;4.95;;
40907;SDS011;51055;59.436;24.778;2022-08-19T07:55:19;17.60;;;6.53;;
40907;SDS011;51055;59.436;24.778;2022-08-19T07:58:12;9.70;;;5.53;;
40907;SDS011;51055;59.436;24.778;2022-08-19T08:00:41;11.70;;;5.65;;
40907;SDS011;51055;59.436;24.778;2022-08-19T08:03:11;11.65;;;5.68;;
40907;SDS011;51055;59.436;24.778;2022-08-19T08:05:40;11.13;;;5.43;;
40907;SDS011;51055;59.436;24.778;2022-08-19T08:08:27;12.27;;;5.22;;
40907;SDS011;51055;59.436;24.778;2022-08-19T08:11:16;9.88;;;4.75;;
40907;SDS011;51055;59.436;24.778;2022-08-19T08:13:47;10.00;;;5.35;;
40907;SDS011;51055;59.436;24.778;2022-08-19T08:16:33;12.40;;;5.20;;
40907;SDS011;51055;59.436;24.778;2022-08-19T08:19:13;10.85;;;5.57;;
40907;SDS011;51055;59.436;24.778;2022-08-19T08:21:52;13.02;;;4.88;;
40907;SDS011;51055;59.436;24.778;2022-08-19T08:24:22;13.85;;;5.88;;
40907;SDS011;51055;59.436;24.778;2022-08-19T08:26:55;13.40;;;5.03;;
40907;SDS011;51055;59.436;24.778;2022-08-19T08:29:28;17.20;;;6.03;;
40907;SDS011;51055;59.436;24.778;2022-08-19T08:32:01;12.30;;;5.50;;
40907;SDS011;51055;59.436;24.778;2022-08-19T08:34:41;11.73;;;5.63;;
40907;SDS011;51055;59.436;24.778;2022-08-19T08:39:36;13.40;;;5.10;;
40907;SDS011;51055;59.436;24.778;2022-08-19T08:44:45;10.20;;;5.53;;
40907;SDS011;51055;59.436;24.778;2022-08-19T08:47:44;9.63;;;5.07;;
40907;SDS011;51055;59.436;24.778;2022-08-19T08:53:03;11.32;;;4.93;;
40907;SDS011;51055;59.436;24.778;2022-08-19T08:55:35;11.82;;;5.18;;
40907;SDS011;51055;59.436;24.778;2022-08-19T08:58:09;10.23;;;5.28;;
40907;SDS011;51055;59.436;24.778;2022-08-19T09:00:44;8.18;;;5.00;;
40907;SDS011;51055;59.436;24.778;2022-08-19T09:03:24;9.73;;;5.05;;
40907;SDS011;51055;59.436;24.778;2022-08-19T09:06:07;9.63;;;5.20;;
40907;SDS011;51055;59.436;24.778;2022-08-19T09:08:40;9.90;;;4.93;;
40907;SDS011;51055;59.436;24.778;2022-08-19T09:11:15;13.60;;;4.97;;
40907;SDS011;51055;59.436;24.778;2022-08-19T09:14:15;9.18;;;5.03;;
40907;SDS011;51055;59.436;24.778;2022-08-19T09:17:14;10.35;;;4.97;;
40907;SDS011;51055;59.436;24.778;2022-08-19T09:19:57;9.65;;;5.00;;
40907;SDS011;51055;59.436;24.778;2022-08-19T09:22:36;7.63;;;4.60;;
40907;SDS011;51055;59.436;24.778;2022-08-19T09:25:06;9.13;;;4.90;;
40907;SDS011;51055;59.436;24.778;2022-08-19T09:27:35;10.68;;;4.90;;
40907;SDS011;51055;59.436;24.778;2022-08-19T09:30:22;10.55;;;4.72;;
40907;SDS011;51055;59.436;24.778;2022-08-19T09:32:51;8.68;;;4.60;;
40907;SDS011;51055;59.436;24.778;2022-08-19T09:35:24;6.90;;;4.72;;
40907;SDS011;51055;59.436;24.778;2022-08-19T09:37:55;7.57;;;4.70;;
40907;SDS011;51055;59.436;24.778;2022-08-19T09:40:26;11.27;;;4.32;;
40907;SDS011;51055;59.436;24.778;2022-08-19T09:42:57;7.82;;;4.28;;
40907;SDS011;51055;59.436;24.778;2022-08-19T09:45:27;11.30;;;4.47;;
40907;SDS011;51055;59.436;24.778;2022-08-19T09:50:23;9.40;;;4.40;;
40907;SDS011;51055;59.436;24.778;2022-08-19T09:52:51;8.23;;;4.20;;
40907;SDS011;51055;59.436;24.778;2022-08-19T09:55:24;8.88;;;4.20;;
40907;SDS011;51055;59.436;24.778;2022-08-19T09:58:01;10.13;;;4.15;;
40907;SDS011;51055;59.436;24.778;2022-08-19T10:00:29;11.32;;;3.83;;
40907;SDS011;51055;59.436;24.778;2022-08-19T10:02:58;8.45;;;4.20;;
40907;SDS011;51055;59.436;24.778;2022-08-19T10:05:27;7.63;;;3.90;;
40907;SDS011;51055;59.436;24.778;2022-08-19T10:08:16;10.68;;;4.20;;
40907;SDS011;51055;59.436;24.778;2022-08-19T10:10:47;10.55;;;4.03;;
40907;SDS011;51055;59.436;24.778;2022-08-19T10:13:16;9.13;;;4.18;;
40907;SDS011;51055;59.436;24.778;2022-08-19T10:15:47;9.23;;;3.60;;
40907;SDS011;51055;59.436;24.778;2022-08-19T10:18:18;7.85;;;3.78;;
40907;SDS011;51055;59.436;24.778;2022-08-19T10:20:47;8.88;;;3.75;;
40907;SDS011;51055;59.436;24.778;2022-08-19T10:23:19;9.35;;;4.30;;
40907;SDS011;51055;59.436;24.778;2022-08-19T10:25:48;5.70;;;3.63;;
40907;SDS011;51055;59.436;24.778;2022-08-19T10:28:17;10.70;;;4.20;;
40907;SDS011;51055;59.436;24.778;2022-08-19T10:30:45;9.25;;;3.90;;
40907;SDS011;51055;59.436;24.778;2022-08-19T10:33:14;9.70;;;4.13;;
40907;SDS011;51055;59.436;24.778;2022-08-19T10:36:03;9.98;;;3.90;;
40907;SDS011;51055;59.436;24.778;2022-08-19T10:38:34;9.85;;;4.03;;
40907;SDS011;51055;59.436;24.778;2022-08-19T10:41:18;8.38;;;3.58;;
40907;SDS011;51055;59.436;24.778;2022-08-19T10:44:04;10.93;;;4.10;;
40907;SDS011;51055;59.436;24.778;2022-08-19T10:46:38;15.25;;;4.22;;
40907;SDS011;51055;59.436;24.778;2022-08-19T10:49:14;10.32;;;3.42;;
40907;SDS011;51055;59.436;24.778;2022-08-19T10:51:43;9.88;;;4.13;;
40907;SDS011;51055;59.436;24.778;2022-08-19T10:54:29;6.57;;;3.67;;
40907;SDS011;51055;59.436;24.778;2022-08-19T10:57:15;7.57;;;4.20;;
40907;SDS011;51055;59.436;24.778;2022-08-19T10:59:43;9.35;;;4.13;;
40907;SDS011;51055;59.436;24.778;2022-08-19T11:02:11;8.80;;;4.32;;
40907;SDS011;51055;59.436;24.778;2022-08-19T11:04:40;9.23;;;4.10;;
40907;SDS011;51055;59.436;24.778;2022-08-19T11:07:08;10.05;;;4.30;;
40907;SDS011;51055;59.436;24.778;2022-08-19T11:09:38;8.65;;;3.95;;
40907;SDS011;51055;59.436;24.778;2022-08-19T11:12:08;10.50;;;3.97;;
40907;SDS011;51055;59.436;24.778;2022-08-19T11:14:37;9.45;;;3.78;;
40907;SDS011;51055;59.436;24.778;2022-08-19T11:17:05;9.63;;;3.80;;
40907;SDS011;51055;59.436;24.778;2022-08-19T11:19:35;10.75;;;3.90;;
40907;SDS011;51055;59.436;24.778;2022-08-19T11:22:02;8.68;;;3.90;;
40907;SDS011;51055;59.436;24.778;2022-08-19T11:24:30;10.57;;;3.53;;
40907;SDS011;51055;59.436;24.778;2022-08-19T11:27:05;11.05;;;6.13;;
40907;SDS011;51055;59.436;24.778;2022-08-19T11:29:39;8.13;;;4.10;;
40907;SDS011;51055;59.436;24.778;2022-08-19T11:32:08;9.30;;;3.63;;
40907;SDS011;51055;59.436;24.778;2022-08-19T11:34:37;10.43;;;4.20;;
40907;SDS011;51055;59.436;24.778;2022-08-19T11:37:05;9.10;;;3.80;;
40907;SDS011;51055;59.436;24.778;2022-08-19T11:39:34;8.27;;;3.80;;
40907;SDS011;51055;59.436;24.778;2022-08-19T11:42:04;7.18;;;3.60;;
40907;SDS011;51055;59.436;24.778;2022-08-19T11:44:53;9.57;;;4.18;;
40907;SDS011;51055;59.436;24.778;2022-08-19T11:47:21;6.22;;;3.25;;
40907;SDS011;51055;59.436;24.778;2022-08-19T11:49:49;10.90;;;3.97;;
40907;SDS011;51055;59.436;24.778;2022-08-19T11:52:17;8.95;;;3.90;;
40907;SDS011;51055;59.436;24.778;2022-08-19T11:54:45;11.88;;;4.20;;
40907;SDS011;51055;59.436;24.778;2022-08-19T11:57:12;8.07;;;3.78;;
40907;SDS011;51055;59.436;24.778;2022-08-19T11:59:47;6.40;;;3.95;;
40907;SDS011;51055;59.436;24.778;2022-08-19T12:02:16;11.40;;;4.10;;
40907;SDS011;51055;59.436;24.778;2022-08-19T12:04:44;11.35;;;4.25;;
40907;SDS011;51055;59.436;24.778;2022-08-19T12:07:12;9.73;;;4.38;;
40907;SDS011;51055;59.436;24.778;2022-08-19T12:09:39;9.35;;;4.22;;
40907;SDS011;51055;59.436;24.778;2022-08-19T12:12:09;9.13;;;3.83;;
40907;SDS011;51055;59.436;24.778;2022-08-19T12:14:37;10.77;;;3.97;;
40907;SDS011;51055;59.436;24.778;2022-08-19T12:17:05;9.93;;;4.10;;
40907;SDS011;51055;59.436;24.778;2022-08-19T12:19:35;8.35;;;3.92;;
40907;SDS011;51055;59.436;24.778;2022-08-19T12:22:04;8.25;;;4.20;;
40907;SDS011;51055;59.436;24.778;2022-08-19T12:24:33;8.57;;;3.97;;
40907;SDS011;51055;59.436;24.778;2022-08-19T12:27:02;6.97;;;3.80;;
40907;SDS011;51055;59.436;24.778;2022-08-19T12:29:30;11.13;;;4.50;;
40907;SDS011;51055;59.436;24.778;2022-08-19T12:31:58;9.18;;;4.30;;
40907;SDS011;51055;59.436;24.778;2022-08-19T12:34:30;8.90;;;4.13;;
40907;SDS011;51055;59.436;24.778;2022-08-19T12:37:01;9.32;;;4.50;;
40907;SDS011;51055;59.436;24.778;2022-08-19T12:39:34;7.80;;;4.20;;
40907;SDS011;51055;59.436;24.778;2022-08-19T12:42:04;9.38;;;4.15;;
40907;SDS011;51055;59.436;24.778;2022-08-19T12:44:32;7.97;;;4.13;;
40907;SDS011;51055;59.436;24.778;2022-08-19T12:47:00;11.02;;;4.70;;
40907;SDS011;51055;59.436;24.778;2022-08-19T12:49:31;9.55;;;4.10;;
40907;SDS011;51055;59.436;24.778;2022-08-19T12:52:21;14.27;;;5.28;;
40907;SDS011;51055;59.436;24.778;2022-08-19T12:54:51;12.75;;;4.15;;
40907;SDS011;51055;59.436;24.778;2022-08-19T12:57:22;7.43;;;4.07;;
40907;SDS011;51055;59.436;24.778;2022-08-19T13:00:06;6.18;;;3.70;;
40907;SDS011;51055;59.436;24.778;2022-08-19T13:02:45;8.73;;;3.92;;
40907;SDS011;51055;59.436;24.778;2022-08-19T13:05:18;11.00;;;4.45;;
40907;SDS011;51055;59.436;24.778;2022-08-19T13:07:50;10.43;;;4.22;;
40907;SDS011;51055;59.436;24.778;2022-08-19T13:10:23;10.63;;;3.88;;
40907;SDS011;51055;59.436;24.778;2022-08-19T13:12:55;7.90;;;3.50;;
40907;SDS011;51055;59.436;24.778;2022-08-19T13:15:26;6.88;;;3.70;;
40907;SDS011;51055;59.436;24.778;2022-08-19T13:17:58;7.95;;;3.75;;
40907;SDS011;51055;59.436;24.778;2022-08-19T13:20:26;7.85;;;3.65;;
40907;SDS011;51055;59.436;24.778;2022-08-19T13:22:54;8.98;;;4.03;;
40907;SDS011;51055;59.436;24.778;2022-08-19T13:25:24;7.68;;;3.53;;
40907;SDS011;51055;59.436;24.778;2022-08-19T13:27:52;8.40;;;3.92;;
40907;SDS011;51055;59.436;24.778;2022-08-19T13:30:22;9.02;;;4.28;;
40907;SDS011;51055;59.436;24.778;2022-08-19T13:33:08;13.20;;;3.95;;
40907;SDS011;51055;59.436;24.778;2022-08-19T13:35:43;9.95;;;3.88;;
40907;SDS011;51055;59.436;24.778;2022-08-19T13:38:12;8.82;;;3.72;;
40907;SDS011;51055;59.436;24.778;2022-08-19T13:40:43;7.53;;;4.13;;
40907;SDS011;51055;59.436;24.778;2022-08-19T13:43:10;11.98;;;4.00;;
40907;SDS011;51055;59.436;24.778;2022-08-19T13:45:50;9.18;;;4.10;;
40907;SDS011;51055;59.436;24.778;2022-08-19T13:48:21;8.05;;;3.80;;
40907;SDS011;51055;59.436;24.778;2022-08-19T13:50:50;8.43;;;4.28;;
40907;SDS011;51055;59.436;24.778;2022-08-19T13:53:18;8.15;;;4.32;;
40907;SDS011;51055;59.436;24.778;2022-08-19T13:58:13;7.60;;;4.45;;
40907;SDS011;51055;59.436;24.778;2022-08-19T14:00:43;8.32;;;4.75;;
40907;SDS011;51055;59.436;24.778;2022-08-19T14:03:12;7.45;;;4.60;;
40907;SDS011;51055;59.436;24.778;2022-08-19T14:05:40;9.52;;;5.03;;
40907;SDS011;51055;59.436;24.778;2022-08-19T14:08:08;9.05;;;4.93;;
40907;SDS011;51055;59.436;24.778;2022-08-19T14:10:36;10.10;;;5.00;;
40907;SDS011;51055;59.436;24.778;2022-08-19T14:13:04;12.88;;;5.43;;
40907;SDS011;51055;59.436;24.778;2022-08-19T14:15:32;9.50;;;5.03;;
40907;SDS011;51055;59.436;24.778;2022-08-19T14:17:59;12.70;;;5.28;;
40907;SDS011;51055;59.436;24.778;2022-08-19T14:20:27;12.35;;;4.72;;
40907;SDS011;51055;59.436;24.778;2022-08-19T14:22:55;9.85;;;5.28;;
40907;SDS011;51055;59.436;24.778;2022-08-19T14:25:24;11.93;;;5.22;;
40907;SDS011;51055;59.436;24.778;2022-08-19T14:27:54;10.05;;;5.57;;
40907;SDS011;51055;59.436;24.778;2022-08-19T14:30:26;9.30;;;5.10;;
40907;SDS011;51055;59.436;24.778;2022-08-19T14:32:56;10.85;;;5.40;;
40907;SDS011;51055;59.436;24.778;2022-08-19T14:35:31;9.02;;;5.60;;
40907;SDS011;51055;59.436;24.778;2022-08-19T14:38:04;11.15;;;5.88;;
40907;SDS011;51055;59.436;24.778;2022-08-19T14:40:33;10.13;;;5.85;;
40907;SDS011;51055;59.436;24.778;2022-08-19T14:43:03;13.27;;;5.78;;
40907;SDS011;51055;59.436;24.778;2022-08-19T14:45:32;11.32;;;5.78;;
40907;SDS011;51055;59.436;24.778;2022-08-19T14:48:07;10.73;;;5.57;;
40907;SDS011;51055;59.436;24.778;2022-08-19T14:50:45;9.10;;;5.60;;
40907;SDS011;51055;59.436;24.778;2022-08-19T14:53:15;9.95;;;5.25;;
40907;SDS011;51055;59.436;24.778;2022-08-19T14:55:52;10.00;;;5.03;;
40907;SDS011;51055;59.436;24.778;2022-08-19T14:58:34;8.00;;;5.30;;
40907;SDS011;51055;59.436;24.778;2022-08-19T15:01:09;10.27;;;5.05;;
40907;SDS011;51055;59.436;24.778;2022-08-19T15:03:50;10.65;;;5.05;;
40907;SDS011;51055;59.436;24.778;2022-08-19T15:06:28;8.50;;;5.13;;
40907;SDS011;51055;59.436;24.778;2022-08-19T15:09:07;8.88;;;5.15;;
40907;SDS011;51055;59.436;24.778;2022-08-19T15:11:52;9.48;;;5.07;;
40907;SDS011;51055;59.436;24.778;2022-08-19T15:14:41;8.73;;;4.97;;
40907;SDS011;51055;59.436;24.778;2022-08-19T15:17:31;12.40;;;5.40;;
40907;SDS011;51055;59.436;24.778;2022-08-19T15:20:14;8.70;;;5.15;;
40907;SDS011;51055;59.436;24.778;2022-08-19T15:22:48;12.48;;;5.22;;
40907;SDS011;51055;59.436;24.778;2022-08-19T15:25:17;7.45;;;5.45;;
40907;SDS011;51055;59.436;24.778;2022-08-19T15:27:46;9.63;;;5.35;;